createdAt,value
2023-03-02T00:01:50.875Z,91.30
2023-03-02T00:04:22.269Z,91.30
2023-03-02T00:06:53.467Z,91.20
2023-03-02T00:09:21.882Z,91.20
2023-03-02T00:11:50.408Z,91.20
2023-03-02T00:14:18.966Z,91.30
2023-03-02T00:16:47.219Z,91.20
2023-03-02T00:19:15.497Z,91.30
2023-03-02T00:21:43.811Z,91.30
2023-03-02T00:24:15.539Z,91.20
2023-03-02T00:26:44.505Z,91.20
2023-03-02T00:29:12.772Z,91.20
2023-03-02T00:31:41.191Z,91.20
2023-03-02T00:34:09.624Z,91.20
2023-03-02T00:36:37.982Z,91.20
2023-03-02T00:39:06.244Z,91.20
2023-03-02T00:41:35.902Z,91.30
2023-03-02T00:44:04.199Z,91.30
2023-03-02T00:46:32.845Z,91.50
2023-03-02T00:49:01.294Z,91.40
2023-03-02T00:51:29.611Z,91.30
2023-03-02T00:53:57.875Z,91.30
2023-03-02T00:56:26.169Z,91.40
2023-03-02T00:58:55.834Z,91.40
2023-03-02T01:01:24.099Z,91.50
2023-03-02T01:03:52.515Z,91.60
2023-03-02T01:06:22.207Z,91.50
2023-03-02T01:08:50.670Z,91.50
2023-03-02T01:11:20.844Z,91.90
2023-03-02T01:13:50.265Z,91.60
2023-03-02T01:16:20.093Z,91.60
2023-03-02T01:18:48.466Z,91.60
2023-03-02T01:21:17.449Z,91.60
2023-03-02T01:23:45.716Z,91.60
2023-03-02T01:26:14.042Z,91.70
2023-03-02T01:28:42.436Z,91.70
2023-03-02T01:31:10.775Z,91.70
2023-03-02T01:33:40.478Z,91.90
2023-03-02T01:36:09.635Z,92.10
2023-03-02T01:38:37.940Z,92.10
2023-03-02T01:41:06.581Z,92.20
2023-03-02T01:43:34.997Z,92.10
2023-03-02T01:46:05.918Z,92.20
2023-03-02T01:48:36.835Z,92.00
2023-03-02T01:51:08.616Z,92.10
2023-03-02T01:53:38.032Z,92.10
2023-03-02T01:56:07.634Z,92.10
2023-03-02T01:58:38.586Z,92.00
2023-03-02T02:01:15.446Z,91.90
2023-03-02T02:03:45.861Z,91.90
2023-03-02T02:06:22.802Z,92.00
2023-03-02T02:08:52.340Z,92.10
2023-03-02T02:11:20.737Z,92.10
2023-03-02T02:13:49.928Z,92.10
2023-03-02T02:16:18.358Z,92.00
2023-03-02T02:18:46.669Z,92.00
2023-03-02T02:21:17.437Z,92.10
2023-03-02T02:23:54.639Z,92.10
2023-03-02T02:26:27.803Z,92.30
2023-03-02T02:29:00.677Z,92.20
2023-03-02T02:31:36.089Z,92.00
2023-03-02T02:34:11.547Z,92.00
2023-03-02T02:36:44.667Z,92.00
2023-03-02T02:39:19.074Z,92.30
2023-03-02T02:41:50.760Z,92.20
2023-03-02T02:44:20.535Z,92.20
2023-03-02T02:46:49.368Z,92.30
2023-03-02T02:49:31.034Z,92.00
2023-03-02T02:51:59.984Z,92.20
2023-03-02T02:54:30.129Z,92.10
2023-03-02T02:57:02.086Z,92.00
2023-03-02T02:59:33.630Z,92.20
2023-03-02T03:02:02.532Z,92.20
2023-03-02T03:04:33.161Z,92.20
2023-03-02T03:07:03.612Z,92.20
2023-03-02T03:09:32.279Z,92.10
2023-03-02T03:12:09.585Z,92.00
2023-03-02T03:14:40.623Z,92.10
2023-03-02T03:17:12.306Z,92.00
2023-03-02T03:19:43.080Z,92.00
2023-03-02T03:22:13.451Z,92.30
2023-03-02T03:24:43.178Z,92.00
2023-03-02T03:27:16.122Z,92.00
2023-03-02T03:29:48.191Z,92.00
2023-03-02T03:32:16.907Z,92.00
2023-03-02T03:34:45.719Z,92.00
2023-03-02T03:37:16.679Z,92.00
2023-03-02T03:39:45.313Z,92.00
2023-03-02T03:42:15.037Z,92.00
2023-03-02T03:44:43.299Z,92.00
2023-03-02T03:47:11.569Z,91.80
2023-03-02T03:49:39.866Z,91.80
2023-03-02T03:52:08.227Z,91.70
2023-03-02T03:54:36.590Z,91.90
2023-03-02T03:57:04.999Z,92.00
2023-03-02T03:59:35.252Z,92.20
2023-03-02T04:02:04.243Z,92.40
2023-03-02T04:04:34.879Z,92.40
2023-03-02T04:07:03.251Z,92.40
2023-03-02T04:09:37.874Z,92.30
2023-03-02T04:12:07.777Z,92.30
2023-03-02T04:14:37.584Z,92.40
2023-03-02T04:17:06.276Z,92.40
2023-03-02T04:19:35.662Z,92.50
2023-03-02T04:22:04.511Z,92.50
2023-03-02T04:24:33.036Z,92.40
2023-03-02T04:27:01.583Z,92.40
2023-03-02T04:29:29.965Z,92.30
2023-03-02T04:32:00.323Z,92.20
2023-03-02T04:34:29.179Z,92.20
2023-03-02T04:36:57.756Z,92.20
2023-03-02T04:39:26.340Z,92.20
2023-03-02T04:41:55.452Z,92.30
2023-03-02T04:44:23.895Z,92.40
2023-03-02T04:46:52.776Z,92.40
2023-03-02T04:49:22.657Z,92.40
2023-03-02T04:51:51.980Z,92.40
2023-03-02T04:54:23.066Z,92.40
2023-03-02T04:56:52.502Z,92.30
2023-03-02T04:59:24.117Z,92.20
2023-03-02T05:01:53.071Z,92.00
2023-03-02T05:04:23.016Z,92.10
2023-03-02T05:06:51.320Z,92.20
2023-03-02T05:09:20.190Z,92.20
2023-03-02T05:11:48.441Z,92.00
2023-03-02T05:14:16.867Z,92.00
2023-03-02T05:16:45.211Z,91.90
2023-03-02T05:19:14.082Z,92.00
2023-03-02T05:21:44.272Z,92.00
2023-03-02T05:24:13.453Z,91.90
2023-03-02T05:26:42.374Z,91.90
2023-03-02T05:29:10.924Z,91.90
2023-03-02T05:31:41.173Z,92.00
2023-03-02T05:34:12.150Z,92.00
2023-03-02T05:36:40.660Z,92.00
2023-03-02T05:39:10.957Z,92.20
2023-03-02T05:41:40.117Z,92.20
2023-03-02T05:44:12.213Z,92.40
2023-03-02T05:46:41.229Z,92.30
2023-03-02T05:49:10.698Z,92.40
2023-03-02T05:51:39.028Z,92.50
2023-03-02T05:54:07.386Z,92.40
2023-03-02T05:56:37.140Z,92.40
2023-03-02T05:59:05.501Z,92.40
2023-03-02T06:01:34.056Z,92.40
2023-03-02T06:04:02.639Z,92.60
2023-03-02T06:06:33.847Z,92.70
2023-03-02T06:09:02.575Z,92.70
2023-03-02T06:11:31.055Z,92.60
2023-03-02T06:14:00.761Z,92.60
2023-03-02T06:16:29.164Z,92.70
2023-03-02T06:18:57.458Z,92.70
2023-03-02T06:21:25.783Z,92.70
2023-03-02T06:23:54.082Z,92.80
2023-03-02T06:26:22.687Z,92.90
2023-03-02T06:28:53.208Z,93.10
2023-03-02T06:31:23.529Z,93.30
2023-03-02T06:33:52.143Z,93.40
2023-03-02T06:36:20.474Z,93.20
2023-03-02T06:38:48.865Z,93.10
2023-03-02T06:41:17.494Z,92.90
2023-03-02T06:43:45.915Z,92.80
2023-03-02T06:46:14.370Z,92.90
2023-03-02T06:48:44.053Z,92.90
2023-03-02T06:51:12.789Z,93.00
2023-03-02T06:53:41.135Z,93.10
2023-03-02T06:56:09.701Z,93.20
2023-03-02T06:58:38.347Z,93.20
2023-03-02T07:01:08.324Z,93.20
2023-03-02T07:03:37.326Z,93.10
2023-03-02T07:06:07.800Z,93.20
2023-03-02T07:08:36.555Z,93.30
2023-03-02T07:11:07.661Z,93.10
2023-03-02T07:13:36.061Z,93.00
2023-03-02T07:16:08.759Z,92.90
2023-03-02T07:18:37.723Z,92.90
2023-03-02T07:21:08.137Z,93.00
2023-03-02T07:23:36.578Z,93.60
2023-03-02T07:26:08.583Z,93.50
2023-03-02T07:28:39.554Z,93.50
2023-03-02T07:31:08.324Z,93.50
2023-03-02T07:33:37.098Z,93.50
2023-03-02T07:36:08.306Z,93.40
2023-03-02T07:38:38.487Z,93.30
2023-03-02T07:41:09.072Z,93.30
2023-03-02T07:43:37.794Z,93.30
2023-03-02T07:46:06.773Z,93.20
2023-03-02T07:48:35.856Z,93.20
2023-03-02T07:51:07.179Z,93.30
2023-03-02T07:53:35.563Z,93.60
2023-03-02T07:56:08.318Z,93.90
2023-03-02T07:58:36.580Z,94.30
2023-03-02T08:01:05.353Z,94.50
2023-03-02T08:03:33.715Z,94.50
2023-03-02T08:06:07.869Z,94.60
2023-03-02T08:08:37.005Z,94.30
2023-03-02T08:11:06.689Z,94.20
2023-03-02T08:13:35.033Z,94.00
2023-03-02T08:16:04.531Z,94.10
2023-03-02T08:18:33.355Z,94.20
2023-03-02T08:21:02.057Z,94.40
2023-03-02T08:23:31.809Z,94.40
2023-03-02T08:26:00.090Z,94.40
2023-03-02T08:28:28.422Z,94.40
2023-03-02T08:30:57.947Z,94.50
2023-03-02T08:33:27.634Z,94.50
2023-03-02T08:35:57.393Z,94.40
2023-03-02T08:38:25.865Z,94.30
2023-03-02T08:40:55.822Z,94.20
2023-03-02T08:43:25.805Z,94.10
2023-03-02T08:45:56.802Z,94.10
2023-03-02T08:48:26.227Z,94.10
2023-03-02T08:50:58.749Z,94.10
2023-03-02T08:53:27.769Z,93.90
2023-03-02T08:55:57.530Z,93.90
2023-03-02T08:58:26.187Z,93.90
2023-03-02T09:00:54.556Z,94.20
2023-03-02T09:03:23.225Z,93.80
2023-03-02T09:05:51.529Z,93.70
2023-03-02T09:08:20.103Z,93.90
2023-03-02T09:10:48.321Z,93.80
2023-03-02T09:13:18.013Z,93.90
2023-03-02T09:15:46.847Z,93.80
2023-03-02T09:18:15.112Z,93.90
2023-03-02T09:20:43.456Z,93.80
2023-03-02T09:23:13.770Z,93.70
2023-03-02T09:25:43.018Z,93.60
2023-03-02T09:28:12.258Z,93.10
2023-03-02T09:30:41.917Z,92.80
2023-03-02T09:33:10.430Z,92.40
2023-03-02T09:35:40.579Z,92.20
2023-03-02T09:38:12.837Z,91.90
2023-03-02T09:40:44.496Z,91.50
2023-03-02T09:43:28.875Z,91.60
2023-03-02T09:46:09.609Z,91.80
2023-03-02T09:48:42.322Z,91.90
2023-03-02T09:51:33.192Z,92.00
2023-03-02T09:54:10.420Z,91.90
2023-03-02T09:56:44.592Z,92.10
2023-03-02T09:59:23.052Z,92.20
2023-03-02T10:01:57.642Z,92.50
2023-03-02T10:04:28.801Z,92.40
2023-03-02T10:06:59.884Z,92.30
2023-03-02T10:09:28.407Z,92.40
2023-03-02T10:12:15.841Z,92.60
2023-03-02T10:14:48.379Z,92.50
2023-03-02T10:17:40.828Z,92.30
2023-03-02T10:20:16.334Z,92.20
2023-03-02T10:22:49.423Z,91.80
2023-03-02T10:25:28.859Z,91.30
2023-03-02T10:28:02.954Z,91.30
2023-03-02T10:30:35.437Z,91.30
2023-03-02T10:33:13.542Z,91.50
2023-03-02T10:35:47.696Z,91.60
2023-03-02T10:38:18.114Z,91.80
2023-03-02T10:40:48.956Z,92.00
2023-03-02T10:43:21.303Z,92.10
2023-03-02T10:46:00.789Z,92.30
2023-03-02T10:48:31.081Z,92.20
2023-03-02T10:51:00.742Z,92.00
2023-03-02T10:53:29.522Z,92.20
2023-03-02T10:55:57.944Z,92.30
2023-03-02T10:58:30.606Z,92.00
2023-03-02T11:01:01.676Z,92.40
2023-03-02T11:03:32.611Z,92.50
2023-03-02T11:06:13.489Z,92.50
2023-03-02T11:08:41.766Z,92.40
2023-03-02T11:11:23.411Z,92.00
2023-03-02T11:13:51.839Z,92.00
2023-03-02T11:16:28.418Z,92.30
2023-03-02T11:19:01.519Z,92.30
2023-03-02T11:21:35.799Z,92.40
2023-03-02T11:24:11.390Z,92.60
2023-03-02T11:26:45.189Z,92.60
2023-03-02T11:29:22.726Z,92.90
2023-03-02T11:31:53.492Z,92.90
2023-03-02T11:34:33.894Z,92.70
2023-03-02T11:37:12.905Z,92.50
2023-03-02T11:40:00.096Z,92.40
2023-03-02T11:42:32.277Z,92.50
2023-03-02T11:45:04.420Z,92.50
2023-03-02T11:47:34.937Z,92.50
2023-03-02T11:50:08.000Z,92.30
2023-03-02T11:52:50.858Z,92.00
2023-03-02T11:55:23.564Z,91.70
2023-03-02T11:57:55.384Z,91.60
2023-03-02T12:00:31.614Z,91.30
2023-03-02T12:03:01.845Z,91.20
2023-03-02T12:05:35.798Z,91.10
2023-03-02T12:08:07.310Z,91.00
2023-03-02T12:10:39.345Z,91.40
2023-03-02T12:13:19.922Z,91.50
2023-03-02T12:15:50.986Z,91.40
2023-03-02T12:18:48.896Z,91.70
2023-03-02T12:21:21.567Z,92.00
2023-03-02T12:24:00.109Z,92.00
2023-03-02T12:26:33.000Z,92.00
2023-03-02T12:29:05.337Z,92.00
2023-03-02T12:31:45.409Z,92.10
2023-03-02T12:34:33.609Z,92.00
2023-03-02T12:37:08.670Z,92.00
2023-03-02T12:40:05.985Z,91.90
2023-03-02T12:42:56.697Z,91.90
2023-03-02T12:45:34.908Z,91.80
2023-03-02T12:48:06.158Z,91.80
2023-03-02T12:50:40.866Z,91.60
2023-03-02T12:53:20.420Z,91.60
2023-03-02T12:55:48.920Z,91.60
2023-03-02T12:58:20.228Z,91.70
2023-03-02T13:00:53.042Z,91.60
2023-03-02T13:03:21.830Z,91.40
2023-03-02T13:05:50.530Z,90.90
2023-03-02T13:08:24.435Z,90.80
2023-03-02T13:10:54.568Z,90.80
2023-03-02T13:13:26.904Z,90.60
2023-03-02T13:15:58.299Z,90.40
2023-03-02T13:18:31.894Z,90.20
2023-03-02T13:21:01.780Z,90.00
2023-03-02T13:23:33.040Z,90.00
2023-03-02T13:26:03.173Z,89.60
2023-03-02T13:28:34.074Z,89.30
2023-03-02T13:31:05.408Z,89.00
2023-03-02T13:33:36.121Z,88.70
2023-03-02T13:36:04.493Z,88.30
2023-03-02T13:38:37.705Z,88.40
2023-03-02T13:41:06.551Z,88.00
2023-03-02T13:43:40.102Z,87.80
2023-03-02T13:46:27.737Z,87.50
2023-03-02T13:49:09.054Z,87.50
2023-03-02T13:51:40.517Z,87.00
2023-03-02T13:54:18.188Z,86.70
2023-03-02T13:56:46.597Z,86.90
2023-03-02T13:59:17.159Z,86.00
2023-03-02T14:01:45.753Z,85.40
2023-03-02T14:04:14.509Z,84.60
2023-03-02T14:06:42.939Z,84.20
2023-03-02T14:09:12.646Z,84.10
2023-03-02T14:11:43.861Z,83.90
2023-03-02T14:14:16.959Z,83.20
2023-03-02T14:16:45.238Z,83.30
2023-03-02T14:19:16.377Z,83.40
2023-03-02T14:21:44.641Z,83.60
2023-03-02T14:24:14.300Z,82.60
2023-03-02T14:26:44.701Z,83.20
2023-03-02T14:29:22.166Z,83.00
2023-03-02T14:31:50.685Z,82.90
2023-03-02T14:34:19.758Z,82.70
2023-03-02T14:36:50.841Z,82.20
2023-03-02T14:39:23.599Z,82.50
2023-03-02T14:41:54.371Z,82.90
2023-03-02T14:44:23.367Z,82.70
2023-03-02T14:46:53.113Z,82.30
2023-03-02T14:49:21.660Z,82.50
2023-03-02T14:52:00.348Z,82.80
2023-03-02T14:54:38.162Z,83.20
2023-03-02T14:57:08.136Z,83.50
2023-03-02T14:59:36.424Z,83.00
2023-03-02T15:02:15.877Z,82.70
2023-03-02T15:04:56.021Z,82.10
2023-03-02T15:07:25.312Z,82.10
2023-03-02T15:09:55.590Z,81.80
2023-03-02T15:12:23.978Z,81.70
2023-03-02T15:14:52.315Z,82.00
2023-03-02T15:17:21.737Z,81.80
2023-03-02T15:19:50.088Z,82.00
2023-03-02T15:22:18.588Z,82.20
2023-03-02T15:24:47.105Z,82.30
2023-03-02T15:27:16.861Z,82.10
2023-03-02T15:29:46.292Z,82.00
2023-03-02T15:32:14.870Z,81.70
2023-03-02T15:34:43.375Z,81.60
2023-03-02T15:37:12.837Z,82.10
2023-03-02T15:39:41.394Z,81.70
2023-03-02T15:42:10.766Z,81.90
2023-03-02T15:44:41.424Z,82.10
2023-03-02T15:47:12.065Z,81.90
2023-03-02T15:49:40.593Z,81.80
2023-03-02T15:52:08.841Z,81.70
2023-03-02T15:54:37.240Z,81.70
2023-03-02T15:57:05.730Z,81.80
2023-03-02T15:59:34.073Z,82.10
2023-03-02T16:02:03.858Z,82.10
2023-03-02T16:04:33.499Z,82.30
2023-03-02T16:07:02.119Z,82.60
2023-03-02T16:09:31.087Z,82.40
2023-03-02T16:11:59.487Z,82.60
2023-03-02T16:14:27.821Z,82.70
2023-03-02T16:16:56.342Z,82.70
2023-03-02T16:19:26.156Z,82.30
2023-03-02T16:21:54.462Z,82.10
2023-03-02T16:24:22.861Z,82.00
2023-03-02T16:26:53.759Z,82.10
2023-03-02T16:29:22.573Z,82.10
2023-03-02T16:31:50.962Z,82.10
2023-03-02T16:34:19.307Z,82.30
2023-03-02T16:36:49.006Z,82.30
2023-03-02T16:39:17.355Z,82.40
2023-03-02T16:41:46.298Z,82.60
2023-03-02T16:44:16.197Z,82.70
2023-03-02T16:46:44.585Z,82.80
2023-03-02T16:49:13.532Z,82.90
2023-03-02T16:51:42.332Z,82.40
2023-03-02T16:54:15.661Z,82.70
2023-03-02T16:56:45.327Z,83.70
2023-03-02T16:59:13.629Z,83.10
2023-03-02T17:01:42.197Z,83.30
2023-03-02T17:04:10.802Z,83.20
2023-03-02T17:06:41.672Z,83.20
2023-03-02T17:09:13.445Z,83.30
2023-03-02T17:11:41.959Z,83.20
2023-03-02T17:14:11.372Z,83.30
2023-03-02T17:16:41.599Z,83.40
2023-03-02T17:19:10.038Z,83.70
2023-03-02T17:21:38.393Z,83.60
2023-03-02T17:24:07.410Z,83.60
2023-03-02T17:26:37.198Z,83.80
2023-03-02T17:29:05.584Z,83.80
2023-03-02T17:31:34.191Z,84.00
2023-03-02T17:34:02.635Z,84.10
2023-03-02T17:36:35.668Z,84.30
2023-03-02T17:39:05.195Z,84.30
2023-03-02T17:41:33.984Z,84.20
2023-03-02T17:44:04.530Z,84.30
2023-03-02T17:46:33.616Z,84.40
2023-03-02T17:49:02.499Z,84.60
2023-03-02T17:51:31.577Z,84.60
2023-03-02T17:53:59.943Z,84.60
2023-03-02T17:56:30.146Z,84.70
2023-03-02T17:59:00.930Z,84.80
2023-03-02T18:01:32.461Z,84.50
2023-03-02T18:04:00.849Z,84.80
2023-03-02T18:06:29.785Z,84.90
2023-03-02T18:08:58.051Z,84.70
2023-03-02T18:11:27.273Z,84.80
2023-03-02T18:13:56.239Z,85.10
2023-03-02T18:16:25.466Z,85.10
2023-03-02T18:18:55.435Z,85.10
2023-03-02T18:21:24.467Z,85.20
2023-03-02T18:23:52.830Z,85.20
2023-03-02T18:26:21.272Z,85.40
2023-03-02T18:28:49.553Z,85.60
2023-03-02T18:31:19.265Z,85.70
2023-03-02T18:33:47.894Z,85.60
2023-03-02T18:36:18.086Z,85.70
2023-03-02T18:38:46.551Z,85.80
2023-03-02T18:41:15.488Z,85.80
2023-03-02T18:43:44.371Z,85.90
2023-03-02T18:46:20.209Z,85.80
2023-03-02T18:48:49.704Z,86.00
2023-03-02T18:51:20.088Z,86.00
2023-03-02T18:53:49.392Z,85.90
2023-03-02T18:56:18.196Z,86.00
2023-03-02T18:58:47.255Z,85.90
2023-03-02T19:01:15.531Z,85.90
2023-03-02T19:03:46.103Z,86.00
2023-03-02T19:06:15.261Z,86.10
2023-03-02T19:08:45.530Z,86.00
2023-03-02T19:11:14.066Z,86.00
2023-03-02T19:13:42.363Z,85.80
2023-03-02T19:16:10.823Z,86.00
2023-03-02T19:18:39.600Z,86.10
2023-03-02T19:21:08.372Z,86.30
2023-03-02T19:23:36.880Z,86.40
2023-03-02T19:26:06.970Z,86.50
2023-03-02T19:28:37.228Z,86.50
2023-03-02T19:31:09.296Z,86.40
2023-03-02T19:33:38.005Z,86.40
2023-03-02T19:36:08.335Z,86.80
2023-03-02T19:38:40.671Z,87.10
2023-03-02T19:41:12.223Z,87.10
2023-03-02T19:43:42.058Z,87.30
2023-03-02T19:46:12.506Z,87.40
2023-03-02T19:48:42.143Z,87.40
2023-03-02T19:51:12.165Z,87.40
2023-03-02T19:53:41.245Z,87.50
2023-03-02T19:56:14.684Z,87.50
2023-03-02T19:58:47.593Z,87.50
2023-03-02T20:01:22.115Z,87.50
2023-03-02T20:03:51.796Z,87.60
2023-03-02T20:06:20.401Z,87.60
2023-03-02T20:08:49.205Z,87.50
2023-03-02T20:11:19.735Z,87.30
2023-03-02T20:13:48.318Z,87.30
2023-03-02T20:16:16.821Z,87.20
2023-03-02T20:18:45.691Z,87.20
2023-03-02T20:21:13.969Z,87.30
2023-03-02T20:23:42.445Z,87.20
2023-03-02T20:26:11.159Z,87.30
2023-03-02T20:28:40.892Z,87.30
2023-03-02T20:31:11.979Z,87.50
2023-03-02T20:33:44.045Z,87.60
2023-03-02T20:36:14.039Z,87.80
2023-03-02T20:38:47.585Z,87.90
2023-03-02T20:41:17.582Z,88.10
2023-03-02T20:43:47.528Z,88.20
2023-03-02T20:46:21.980Z,88.20
2023-03-02T20:48:51.216Z,88.10
2023-03-02T20:51:19.692Z,87.80
2023-03-02T20:53:51.422Z,87.90
2023-03-02T20:56:20.411Z,88.10
2023-03-02T20:58:50.705Z,88.70
2023-03-02T21:01:20.940Z,89.00
2023-03-02T21:03:49.398Z,88.90
2023-03-02T21:06:18.284Z,88.70
2023-03-02T21:08:47.539Z,88.90
2023-03-02T21:11:18.736Z,89.00
2023-03-02T21:13:51.798Z,89.10
2023-03-02T21:16:23.233Z,89.10
2023-03-02T21:18:52.402Z,89.20
2023-03-02T21:21:29.719Z,89.40
2023-03-02T21:24:05.050Z,89.40
2023-03-02T21:26:35.391Z,89.40
2023-03-02T21:29:06.007Z,89.40
2023-03-02T21:31:34.626Z,89.40
2023-03-02T21:34:03.479Z,89.40
2023-03-02T21:36:32.130Z,89.50
2023-03-02T21:39:01.003Z,89.40
2023-03-02T21:41:29.696Z,89.40
2023-03-02T21:43:58.584Z,89.30
2023-03-02T21:46:28.315Z,89.30
2023-03-02T21:48:56.792Z,89.50
2023-03-02T21:51:25.206Z,89.20
2023-03-02T21:53:54.107Z,89.30
2023-03-02T21:56:24.732Z,89.50
2023-03-02T21:58:54.791Z,89.60
2023-03-02T22:01:24.039Z,89.70
2023-03-02T22:03:54.185Z,89.70
2023-03-02T22:06:24.504Z,89.60
2023-03-02T22:08:53.736Z,89.60
2023-03-02T22:11:24.253Z,89.60
2023-03-02T22:13:55.301Z,89.70
2023-03-02T22:16:25.593Z,89.70
2023-03-02T22:18:58.274Z,89.50
2023-03-02T22:21:32.017Z,89.50
2023-03-02T22:24:15.920Z,89.50
2023-03-02T22:26:46.655Z,89.30
2023-03-02T22:29:17.014Z,89.30
2023-03-02T22:31:47.707Z,89.20
2023-03-02T22:34:20.709Z,89.20
2023-03-02T22:36:49.201Z,89.20
2023-03-02T22:39:28.999Z,89.10
2023-03-02T22:42:06.578Z,89.10
2023-03-02T22:44:35.572Z,88.90
2023-03-02T22:47:07.591Z,88.80
2023-03-02T22:49:37.387Z,88.80
2023-03-02T22:52:14.045Z,88.70
2023-03-02T22:54:42.376Z,88.90
2023-03-02T22:57:25.984Z,89.00
2023-03-02T23:00:01.348Z,88.80
2023-03-02T23:02:30.738Z,88.90
2023-03-02T23:05:00.558Z,89.10
2023-03-02T23:07:28.956Z,89.30
2023-03-02T23:09:57.898Z,89.20
2023-03-02T23:12:28.533Z,89.10
2023-03-02T23:14:58.337Z,89.20
2023-03-02T23:17:33.874Z,89.30
2023-03-02T23:20:05.926Z,89.40
2023-03-02T23:22:34.384Z,89.80
2023-03-02T23:25:03.967Z,89.90
2023-03-02T23:27:32.250Z,90.00
2023-03-02T23:30:00.656Z,90.10
2023-03-02T23:32:28.996Z,90.10
2023-03-02T23:34:57.454Z,90.00
2023-03-02T23:37:27.172Z,90.00
2023-03-02T23:39:55.458Z,89.90
2023-03-02T23:42:24.027Z,90.00
2023-03-02T23:44:52.286Z,90.00
2023-03-02T23:47:20.773Z,90.10
2023-03-02T23:49:49.311Z,90.10
2023-03-02T23:52:17.548Z,90.20
2023-03-02T23:54:47.378Z,90.20
2023-03-02T23:57:15.899Z,90.20
2023-03-02T23:59:44.657Z,90.20
